createdAt,value
2019-01-19T00:01:34.911Z,191.05
2019-01-19T00:04:24.999Z,177.22
2019-01-19T00:07:11.535Z,148.25
2019-01-19T00:09:51.593Z,128.53
2019-01-19T00:12:33.330Z,106.78
2019-01-19T00:15:11.104Z,99.83
2019-01-19T00:17:58.187Z,93.22
2019-01-19T00:20:38.835Z,102.90
2019-01-19T00:23:21.261Z,104.90
2019-01-19T00:28:04.174Z,102.17
2019-01-19T00:30:44.188Z,100.00
2019-01-19T00:33:23.152Z,99.37
2019-01-19T00:36:42.509Z,93.03
2019-01-19T00:39:24.320Z,87.10
2019-01-19T00:42:07.162Z,84.05
2019-01-19T00:44:45.311Z,83.30
2019-01-19T00:48:21.771Z,81.20
2019-01-19T00:51:19.039Z,81.12
2019-01-19T00:53:57.490Z,82.95
2019-01-19T00:56:36.958Z,84.45
2019-01-19T00:59:12.794Z,87.35
2019-01-19T01:02:05.812Z,84.70
2019-01-19T01:04:45.111Z,86.32
2019-01-19T01:10:32.503Z,87.22
2019-01-19T01:13:48.505Z,87.70
2019-01-19T01:16:56.639Z,96.60
2019-01-19T01:19:39.510Z,91.82
2019-01-19T01:22:23.679Z,96.70
2019-01-19T01:25:19.637Z,95.97
2019-01-19T01:30:08.996Z,96.75
2019-01-19T01:32:54.432Z,92.62
2019-01-19T01:35:40.363Z,101.27
2019-01-19T01:38:23.098Z,97.92
2019-01-19T01:41:20.323Z,108.17
2019-01-19T01:44:02.619Z,119.45
2019-01-19T01:46:54.830Z,159.95
2019-01-19T01:49:34.689Z,196.45
2019-01-19T01:52:28.741Z,195.72
2019-01-19T01:55:05.905Z,193.78
2019-01-19T01:57:45.836Z,200.57
2019-01-19T02:00:27.837Z,192.22
2019-01-19T02:03:41.586Z,190.30
2019-01-19T02:07:26.084Z,179.25
2019-01-19T02:11:06.115Z,161.18
2019-01-19T02:13:56.532Z,153.78
2019-01-19T02:18:44.932Z,153.32
2019-01-19T02:21:36.510Z,137.80
2019-01-19T02:25:13.431Z,138.40
2019-01-19T02:29:56.276Z,136.43
2019-01-19T02:32:38.716Z,128.82
2019-01-19T02:35:28.368Z,126.50
2019-01-19T02:38:13.339Z,129.00
2019-01-19T02:40:54.730Z,99.75
2019-01-19T02:44:13.018Z,88.72
2019-01-19T02:47:08.615Z,85.85
2019-01-19T02:49:47.655Z,93.72
2019-01-19T02:53:32.715Z,94.35
2019-01-19T02:56:12.506Z,97.02
2019-01-19T02:59:58.778Z,97.47
2019-01-19T03:04:43.852Z,93.58
2019-01-19T03:08:24.860Z,74.00
2019-01-19T03:11:28.982Z,61.55
2019-01-19T03:15:12.377Z,62.45
2019-01-19T03:18:15.733Z,58.75
2019-01-19T03:22:30.607Z,69.72
2019-01-19T03:25:42.763Z,68.75
2019-01-19T03:29:24.004Z,71.67
2019-01-19T03:32:38.752Z,77.25
2019-01-19T03:37:23.953Z,68.47
2019-01-19T03:40:07.032Z,74.32
2019-01-19T03:42:56.148Z,72.00
2019-01-19T03:45:38.878Z,72.45
2019-01-19T03:48:19.504Z,66.57
2019-01-19T03:51:10.499Z,72.17
2019-01-19T03:54:21.503Z,72.22
2019-01-19T03:57:01.966Z,67.37
2019-01-19T03:59:43.295Z,63.52
2019-01-19T04:02:27.868Z,73.37
2019-01-19T04:05:18.008Z,132.22
2019-01-19T04:08:00.199Z,100.72
2019-01-19T04:10:45.523Z,81.28
2019-01-19T04:13:31.053Z,77.75
2019-01-19T04:16:26.322Z,93.72
2019-01-19T04:19:22.173Z,89.20
2019-01-19T04:22:01.466Z,85.00
2019-01-19T04:24:45.140Z,77.58
2019-01-19T04:27:14.845Z,77.92
2019-01-19T04:29:44.549Z,72.60
2019-01-19T04:32:14.297Z,69.32
2019-01-19T04:34:43.745Z,68.37
2019-01-19T04:37:13.248Z,67.55
2019-01-19T04:39:42.788Z,69.27
2019-01-19T04:42:12.529Z,64.70
2019-01-19T04:44:41.884Z,62.50
2019-01-19T04:47:11.516Z,76.53
2019-01-19T04:49:41.027Z,110.30
2019-01-19T04:52:10.615Z,97.30
2019-01-19T04:54:40.114Z,108.27
2019-01-19T04:57:09.911Z,97.53
2019-01-19T04:59:39.644Z,96.70
2019-01-19T05:02:09.377Z,99.07
2019-01-19T05:04:39.072Z,101.60
2019-01-19T05:07:08.802Z,132.15
2019-01-19T05:09:38.654Z,131.72
2019-01-19T05:12:08.387Z,147.75
2019-01-19T05:14:38.003Z,110.10
2019-01-19T05:17:07.528Z,91.82
2019-01-19T05:19:36.906Z,91.78
2019-01-19T05:22:06.505Z,94.25
2019-01-19T05:24:36.103Z,91.92
2019-01-19T05:27:05.610Z,87.57
2019-01-19T05:29:35.336Z,85.30
2019-01-19T05:32:05.120Z,81.50
2019-01-19T05:34:34.649Z,85.32
2019-01-19T05:37:04.330Z,85.75
2019-01-19T05:39:33.868Z,87.67
2019-01-19T05:42:04.153Z,95.75
2019-01-19T05:44:33.903Z,92.50
2019-01-19T05:47:03.563Z,104.92
2019-01-19T05:49:33.020Z,127.92
2019-01-19T05:52:02.685Z,133.00
2019-01-19T05:54:32.477Z,126.20
2019-01-19T05:57:02.057Z,125.78
2019-01-19T05:59:31.439Z,126.00
2019-01-19T06:02:01.196Z,116.70
2019-01-19T06:04:30.936Z,104.90
2019-01-19T06:07:00.579Z,97.65
2019-01-19T06:09:30.226Z,93.97
2019-01-19T06:11:59.886Z,83.40
2019-01-19T06:14:29.390Z,71.22
2019-01-19T06:16:58.946Z,73.25
2019-01-19T06:19:28.473Z,80.17
2019-01-19T06:22:00.285Z,66.28
2019-01-19T06:24:29.842Z,66.95
2019-01-19T06:26:59.189Z,63.60
2019-01-19T06:29:28.916Z,70.55
2019-01-19T06:31:58.707Z,133.05
2019-01-19T06:34:28.321Z,68.12
2019-01-19T06:36:57.995Z,87.20
2019-01-19T06:39:27.730Z,77.80
2019-01-19T06:41:57.478Z,84.95
2019-01-19T06:44:33.281Z,83.17
2019-01-19T06:47:03.011Z,76.72
2019-01-19T06:49:32.436Z,118.37
2019-01-19T06:52:02.096Z,75.03
2019-01-19T06:54:31.519Z,94.45
2019-01-19T06:57:01.278Z,93.90
2019-01-19T06:59:31.092Z,89.70
2019-01-19T07:02:00.780Z,83.25
2019-01-19T07:04:30.469Z,75.35
2019-01-19T07:07:02.747Z,75.25
2019-01-19T07:09:30.019Z,74.53
2019-01-19T07:11:59.580Z,74.35
2019-01-19T07:14:29.184Z,78.33
2019-01-19T07:16:58.953Z,80.70
2019-01-19T07:19:28.807Z,78.33
2019-01-19T07:21:58.522Z,75.52
2019-01-19T07:24:27.844Z,74.97
2019-01-19T07:26:57.485Z,78.25
2019-01-19T07:29:27.740Z,76.45
2019-01-19T07:31:57.280Z,79.15
2019-01-19T07:34:27.363Z,78.78
2019-01-19T07:36:58.098Z,88.60
2019-01-19T07:39:28.371Z,87.17
2019-01-19T07:41:58.123Z,89.72
2019-01-19T07:44:28.460Z,88.47
2019-01-19T07:46:58.115Z,90.20
2019-01-19T07:49:27.818Z,95.28
2019-01-19T07:51:57.376Z,88.30
2019-01-19T07:54:26.964Z,87.50
2019-01-19T07:56:56.340Z,88.27
2019-01-19T07:59:26.112Z,85.70
2019-01-19T08:01:55.883Z,85.50
2019-01-19T08:04:25.528Z,84.92
2019-01-19T08:06:55.154Z,85.07
2019-01-19T08:09:24.533Z,84.50
2019-01-19T08:11:54.090Z,84.62
2019-01-19T08:14:24.119Z,89.40
2019-01-19T08:16:54.180Z,90.40
2019-01-19T08:19:23.847Z,95.38
2019-01-19T08:21:53.458Z,88.50
2019-01-19T08:24:22.964Z,86.08
2019-01-19T08:26:52.675Z,98.65
2019-01-19T08:29:22.432Z,92.60
2019-01-19T08:31:52.022Z,93.10
2019-01-19T08:34:21.696Z,117.95
2019-01-19T08:36:51.336Z,132.50
2019-01-19T08:39:20.975Z,89.07
2019-01-19T08:41:50.464Z,84.05
2019-01-19T08:44:20.239Z,83.25
2019-01-19T08:46:49.962Z,83.97
2019-01-19T08:49:19.579Z,85.83
2019-01-19T08:51:49.110Z,88.58
2019-01-19T08:54:18.762Z,88.17
2019-01-19T08:56:48.284Z,103.62
2019-01-19T08:59:18.020Z,102.55
2019-01-19T09:01:47.597Z,90.92
2019-01-19T09:04:17.081Z,90.77
2019-01-19T09:06:46.835Z,91.90
2019-01-19T09:09:16.407Z,91.40
2019-01-19T09:11:45.901Z,94.15
2019-01-19T09:14:15.849Z,93.12
2019-01-19T09:16:45.569Z,91.45
2019-01-19T09:19:15.268Z,93.00
2019-01-19T09:21:45.262Z,93.17
2019-01-19T09:24:19.893Z,91.32
2019-01-19T09:26:49.611Z,94.35
2019-01-19T09:29:19.062Z,93.33
2019-01-19T09:31:48.827Z,127.47
2019-01-19T09:34:18.422Z,121.15
2019-01-19T09:36:48.236Z,117.53
2019-01-19T09:39:20.773Z,115.42
2019-01-19T09:41:51.663Z,116.08
2019-01-19T09:44:21.389Z,131.90
2019-01-19T09:46:50.972Z,136.60
2019-01-19T09:49:20.994Z,131.20
2019-01-19T09:51:50.759Z,134.37
2019-01-19T09:54:20.127Z,136.40
2019-01-19T09:56:49.883Z,132.90
2019-01-19T09:59:19.509Z,123.07
2019-01-19T10:01:49.299Z,179.32
2019-01-19T10:04:19.012Z,115.67
2019-01-19T10:06:48.786Z,123.18
2019-01-19T10:09:18.559Z,113.75
2019-01-19T10:11:48.323Z,116.10
2019-01-19T10:14:18.432Z,107.92
2019-01-19T10:16:48.551Z,108.45
2019-01-19T10:19:18.277Z,112.62
2019-01-19T10:21:48.000Z,112.52
2019-01-19T10:24:17.692Z,119.22
2019-01-19T10:26:47.403Z,118.77
2019-01-19T10:29:17.075Z,114.82
2019-01-19T10:31:46.735Z,123.28
2019-01-19T10:34:16.457Z,127.53
2019-01-19T10:36:46.043Z,137.05
2019-01-19T10:39:15.783Z,135.35
2019-01-19T10:41:45.374Z,124.45
2019-01-19T10:44:15.124Z,120.95
2019-01-19T10:46:44.804Z,121.35
2019-01-19T10:49:14.558Z,118.72
2019-01-19T10:51:44.323Z,122.53
2019-01-19T10:54:13.779Z,123.20
2019-01-19T10:56:43.633Z,124.35
2019-01-19T10:59:13.105Z,123.10
2019-01-19T11:01:42.907Z,119.37
2019-01-19T11:04:12.735Z,149.02
2019-01-19T11:06:42.679Z,124.90
2019-01-19T11:09:12.273Z,126.90
2019-01-19T11:11:42.173Z,124.10
2019-01-19T11:14:11.554Z,118.15
2019-01-19T11:16:40.920Z,118.82
2019-01-19T11:19:10.435Z,116.37
2019-01-19T11:21:40.601Z,112.80
2019-01-19T11:24:10.310Z,106.32
2019-01-19T11:26:40.825Z,109.03
2019-01-19T11:29:10.583Z,107.15
2019-01-19T11:31:40.019Z,99.25
2019-01-19T11:34:09.740Z,98.62
2019-01-19T11:36:39.495Z,93.50
2019-01-19T11:39:09.324Z,95.20
2019-01-19T11:41:39.236Z,95.87
2019-01-19T11:44:09.076Z,91.78
2019-01-19T11:46:38.847Z,94.87
2019-01-19T11:49:08.571Z,94.03
2019-01-19T11:51:38.264Z,92.20
2019-01-19T11:54:08.039Z,91.57
2019-01-19T11:56:37.588Z,90.42
2019-01-19T11:59:06.924Z,90.30
2019-01-19T12:01:36.603Z,89.07
2019-01-19T12:04:06.362Z,88.22
2019-01-19T12:06:36.120Z,84.52
2019-01-19T12:09:07.580Z,85.53
2019-01-19T12:11:37.260Z,86.80
2019-01-19T12:14:06.979Z,86.40
2019-01-19T12:16:36.656Z,86.63
2019-01-19T12:19:06.298Z,93.67
2019-01-19T12:21:35.849Z,105.95
2019-01-19T12:24:05.706Z,105.05
2019-01-19T12:26:35.114Z,99.65
2019-01-19T12:29:04.884Z,104.10
2019-01-19T12:31:34.599Z,105.10
2019-01-19T12:34:04.294Z,105.47
2019-01-19T12:36:33.658Z,98.55
2019-01-19T12:39:03.668Z,95.30
2019-01-19T12:41:33.279Z,88.30
2019-01-19T12:44:02.761Z,80.95
2019-01-19T12:46:32.440Z,82.55
2019-01-19T12:49:02.243Z,78.47
2019-01-19T12:51:31.954Z,80.83
2019-01-19T12:54:01.557Z,81.17
2019-01-19T12:56:31.042Z,83.55
2019-01-19T12:59:00.776Z,84.47
2019-01-19T13:01:30.427Z,81.05
2019-01-19T13:03:59.967Z,78.30
2019-01-19T13:06:41.398Z,76.10
2019-01-19T13:09:16.444Z,78.45
2019-01-19T13:12:25.381Z,84.05
2019-01-19T13:15:40.479Z,77.17
2019-01-19T13:18:34.958Z,78.10
2019-01-19T13:21:33.257Z,76.72
2019-01-19T13:24:11.511Z,76.05
2019-01-19T13:26:55.544Z,76.02
2019-01-19T13:29:35.917Z,73.85
2019-01-19T13:32:45.470Z,75.50
2019-01-19T13:36:58.143Z,71.30
2019-01-19T13:39:35.248Z,74.32
2019-01-19T13:43:20.136Z,74.50
2019-01-19T13:45:55.753Z,72.37
2019-01-19T13:49:06.351Z,73.90
2019-01-19T13:51:43.040Z,71.02
2019-01-19T13:54:29.806Z,72.47
2019-01-19T13:58:17.691Z,71.85
2019-01-19T14:00:57.990Z,73.25
2019-01-19T14:04:23.671Z,101.05
2019-01-19T14:07:14.066Z,117.87
2019-01-19T14:10:00.669Z,110.70
2019-01-19T14:12:49.087Z,117.55
2019-01-19T14:16:27.891Z,113.05
2019-01-19T14:19:09.914Z,93.62
2019-01-19T14:23:54.000Z,80.75
2019-01-19T14:26:37.559Z,83.17
2019-01-19T14:29:34.854Z,97.88
2019-01-19T14:32:19.484Z,101.75
2019-01-19T14:35:04.356Z,115.57
2019-01-19T14:38:19.267Z,109.67
2019-01-19T14:40:59.149Z,110.20
2019-01-19T14:44:39.023Z,111.80
2019-01-19T14:47:18.340Z,105.52
2019-01-19T14:50:01.541Z,105.40
2019-01-19T14:52:39.355Z,104.17
2019-01-19T14:57:23.738Z,101.27
2019-01-19T15:00:05.325Z,99.75
2019-01-19T15:04:49.283Z,103.92
2019-01-19T15:07:37.379Z,104.92
2019-01-19T15:10:48.760Z,111.50
2019-01-19T15:15:42.572Z,117.47
2019-01-19T15:18:25.478Z,127.35
2019-01-19T15:21:43.490Z,129.70
2019-01-19T15:25:22.415Z,132.00
2019-01-19T15:28:25.650Z,139.37
2019-01-19T15:31:13.422Z,150.03
2019-01-19T15:35:56.525Z,151.68
2019-01-19T15:40:40.088Z,157.57
2019-01-19T15:43:26.159Z,179.30
2019-01-19T15:46:40.582Z,176.50
2019-01-19T15:51:32.486Z,173.28
2019-01-19T15:54:12.439Z,154.85
2019-01-19T15:56:59.104Z,141.25
2019-01-19T16:00:40.131Z,115.12
2019-01-19T16:03:27.574Z,100.18
2019-01-19T16:06:08.734Z,114.20
2019-01-19T16:08:51.246Z,106.92
2019-01-19T16:12:34.740Z,106.35
2019-01-19T16:15:31.129Z,110.88
2019-01-19T16:18:10.482Z,82.70
2019-01-19T16:20:53.213Z,92.57
2019-01-19T16:23:40.305Z,102.25
2019-01-19T16:26:25.496Z,105.47
2019-01-19T16:29:38.431Z,109.75
2019-01-19T16:32:28.657Z,104.85
2019-01-19T16:35:59.121Z,100.97
2019-01-19T16:38:43.199Z,92.67
2019-01-19T16:41:39.750Z,94.72
2019-01-19T16:46:31.471Z,99.35
2019-01-19T16:49:08.915Z,97.15
2019-01-19T16:52:25.157Z,82.30
2019-01-19T16:55:25.280Z,86.97
2019-01-19T16:58:05.817Z,90.05
2019-01-19T17:02:48.527Z,79.42
2019-01-19T17:05:28.711Z,81.57
2019-01-19T17:08:25.749Z,75.30
2019-01-19T17:12:22.640Z,69.37
2019-01-19T17:15:06.465Z,71.60
2019-01-19T17:17:55.744Z,187.53
2019-01-19T17:20:43.395Z,57.25
2019-01-19T17:23:57.415Z,53.83
2019-01-19T17:26:44.861Z,46.10
2019-01-19T17:29:25.688Z,43.28
2019-01-19T17:32:12.030Z,46.55
2019-01-19T17:35:09.249Z,39.78
2019-01-19T17:37:44.343Z,38.15
2019-01-19T17:40:56.424Z,31.77
2019-01-19T17:43:38.421Z,36.50
2019-01-19T17:46:26.688Z,629.77
2019-01-19T17:49:13.938Z,999.90
2019-01-19T17:52:51.282Z,472.60
2019-01-19T17:55:31.580Z,82.88
2019-01-19T17:58:22.741Z,419.15
2019-01-19T18:01:01.968Z,260.55
2019-01-19T18:03:46.361Z,999.90
2019-01-19T18:06:39.859Z,999.90
2019-01-19T18:09:47.363Z,999.90
2019-01-19T18:12:41.855Z,263.07
2019-01-19T18:15:25.942Z,720.13
2019-01-19T18:18:05.359Z,654.33
2019-01-19T18:23:54.751Z,359.33
2019-01-19T18:26:34.544Z,511.47
2019-01-19T18:29:15.604Z,462.43
2019-01-19T18:33:04.779Z,587.90
2019-01-19T18:38:53.045Z,646.40
2019-01-19T18:41:31.666Z,369.53
2019-01-19T18:44:37.973Z,461.27
2019-01-19T18:47:48.598Z,360.20
2019-01-19T18:51:28.705Z,29.43
2019-01-19T18:54:10.187Z,30.33
2019-01-19T18:59:01.990Z,29.10
2019-01-19T19:01:51.170Z,32.78
2019-01-19T19:06:37.604Z,33.13
2019-01-19T19:09:26.617Z,33.53
2019-01-19T19:12:06.248Z,33.35
2019-01-19T19:14:45.835Z,34.58
2019-01-19T19:17:29.818Z,37.35
2019-01-19T19:20:27.611Z,33.33
2019-01-19T19:23:32.283Z,34.80
2019-01-19T19:26:48.117Z,35.28
2019-01-19T19:29:53.612Z,34.73
2019-01-19T19:33:24.332Z,34.63
2019-01-19T19:36:05.928Z,34.30
2019-01-19T19:38:53.064Z,35.03
2019-01-19T19:41:35.244Z,33.53
2019-01-19T19:44:27.445Z,34.65
2019-01-19T19:47:13.651Z,33.95
2019-01-19T19:50:01.443Z,35.78
2019-01-19T19:52:31.174Z,35.43
2019-01-19T19:54:59.281Z,37.17
2019-01-19T19:57:29.824Z,38.23
2019-01-19T19:59:59.397Z,38.25
2019-01-19T20:02:29.248Z,40.80
2019-01-19T20:04:59.967Z,40.20
2019-01-19T20:07:29.537Z,43.63
2019-01-19T20:09:59.707Z,40.88
2019-01-19T20:12:31.307Z,44.48
2019-01-19T20:15:00.791Z,40.73
2019-01-19T20:17:30.467Z,40.23
2019-01-19T20:20:02.125Z,41.53
2019-01-19T20:22:31.975Z,41.83
2019-01-19T20:25:07.971Z,40.12
2019-01-19T20:27:37.541Z,40.43
2019-01-19T20:30:08.700Z,40.50
2019-01-19T20:32:38.515Z,41.68
2019-01-19T20:35:08.634Z,40.48
2019-01-19T20:37:38.369Z,41.88
2019-01-19T20:40:08.359Z,42.00
2019-01-19T20:42:37.861Z,40.85
2019-01-19T20:45:08.894Z,40.83
2019-01-19T20:47:38.659Z,48.68
2019-01-19T20:50:09.747Z,45.00
2019-01-19T20:52:39.407Z,42.55
2019-01-19T20:55:09.923Z,40.92
2019-01-19T20:57:39.857Z,41.73
2019-01-19T21:00:12.239Z,40.58
2019-01-19T21:02:41.780Z,42.00
2019-01-19T21:05:11.548Z,41.13
2019-01-19T21:07:41.228Z,40.83
2019-01-19T21:10:11.050Z,41.58
2019-01-19T21:12:41.124Z,42.75
2019-01-19T21:15:12.183Z,43.80
2019-01-19T21:17:41.831Z,43.87
2019-01-19T21:20:12.419Z,52.45
2019-01-19T21:22:43.983Z,49.30
2019-01-19T21:25:13.691Z,51.45
2019-01-19T21:27:43.483Z,48.60
2019-01-19T21:30:13.491Z,48.75
2019-01-19T21:32:42.957Z,50.03
2019-01-19T21:35:14.816Z,46.88
2019-01-19T21:37:44.624Z,44.70
2019-01-19T21:40:14.312Z,49.67
2019-01-19T21:42:44.023Z,58.33
2019-01-19T21:45:16.899Z,55.67
2019-01-19T21:47:46.364Z,48.85
2019-01-19T21:50:15.876Z,48.30
2019-01-19T21:52:45.495Z,51.98
2019-01-19T21:55:15.192Z,48.60
2019-01-19T21:57:44.741Z,50.45
2019-01-19T22:00:16.031Z,53.13
2019-01-19T22:02:45.590Z,54.93
2019-01-19T22:05:16.443Z,52.30
2019-01-19T22:07:46.444Z,51.37
2019-01-19T22:10:17.827Z,53.55
2019-01-19T22:12:47.630Z,51.73
2019-01-19T22:15:18.302Z,50.17
2019-01-19T22:17:48.246Z,50.28
2019-01-19T22:20:18.276Z,49.83
2019-01-19T22:22:48.185Z,50.70
2019-01-19T22:25:18.295Z,50.03
2019-01-19T22:27:49.114Z,49.20
2019-01-19T22:30:22.181Z,48.35
2019-01-19T22:32:53.590Z,49.85
2019-01-19T22:35:25.024Z,48.92
2019-01-19T22:37:54.957Z,48.42
2019-01-19T22:40:24.767Z,48.87
2019-01-19T22:42:58.031Z,50.58
2019-01-19T22:45:28.079Z,48.73
2019-01-19T22:47:57.907Z,48.92
2019-01-19T22:50:27.777Z,49.30
2019-01-19T22:52:57.704Z,50.85
2019-01-19T22:55:27.620Z,48.90
2019-01-19T22:57:58.446Z,49.33
2019-01-19T23:02:39.773Z,48.52
2019-01-19T23:05:09.721Z,45.80
2019-01-19T23:07:39.488Z,51.00
2019-01-19T23:10:09.540Z,48.90
2019-01-19T23:12:39.645Z,48.13
2019-01-19T23:15:09.847Z,49.23
2019-01-19T23:17:39.703Z,49.23
2019-01-19T23:20:09.848Z,49.23
2019-01-19T23:22:39.798Z,50.63
2019-01-19T23:25:09.796Z,48.13
2019-01-19T23:27:39.799Z,50.05
2019-01-19T23:30:10.235Z,48.33
2019-01-19T23:32:39.952Z,48.02
2019-01-19T23:35:09.560Z,45.83
2019-01-19T23:37:39.121Z,45.85
2019-01-19T23:40:08.811Z,47.38
2019-01-19T23:42:38.485Z,46.30
2019-01-19T23:45:08.211Z,44.05
2019-01-19T23:47:37.922Z,44.93
2019-01-19T23:50:07.791Z,44.00
2019-01-19T23:52:37.288Z,42.65
2019-01-19T23:55:06.926Z,39.67
2019-01-19T23:57:36.530Z,41.88
